Grover, North Carolina
Current Conditions -  °F | °C
As of 7:15 PM on Sunday 23 Nov 2014 (Local Time) from KEHO Reporting Station
Drizzle Drizzle  
Wind Chill: 47°   Ceiling: 200
Heat Index: 47°   Visibility: 3mi
Dew Point: 47°   Wind: 0mph
Humidity: 99%   Direction: NA
Pressure: 29.76"   Gusts: NA
Location:  35.17°N, 81.45°W
Report Text: KEHO 240015Z AUTO 00000KT 3SM -DZ OVC002 08/08 A2976 RMK AO2 T00840083
Loading
Personal Weather Stations






























Interactive Weather Map New forecast layout! Learn more

10-Day Weather Forecast

Advertisements
Track Severe Weather on mobile